Time;durP1;ratioP1;P1;durP2;ratioP2;P2;SDS_P1;SDS_P2;PMS_P1;PMS_P2;Temp;Humidity;BMP_temperature;BMP_pressure;BME280_temperature;BME280_humidity;BME280_pressure;Samples;Min_cycle;Max_cycle;Signal;HPM_P1;HPM_P2
2023/10/22 00:00:48;;;;;;;5.20;2.65;;;;;;;19.60;68.19;99122.91;5136680;27;20058;-59
2023/10/22 00:03:19;;;;;;;5.38;2.05;;;;;;;19.60;68.07;99112.09;5136806;27;20043;-57
2023/10/22 00:05:47;;;;;;;5.85;2.78;;;;;;;19.60;68.40;99116.66;5136565;27;20491;-57
2023/10/22 00:08:21;;;;;;;6.13;2.50;;;;;;;19.59;68.51;99104.13;5136605;27;20083;-57
2023/10/22 00:10:49;;;;;;;6.85;2.63;;;;;;;19.59;68.25;99098.72;5136690;27;20403;-58
2023/10/22 00:13:19;;;;;;;4.88;2.53;;;;;;;19.59;68.14;99082.47;5136511;27;20392;-57
2023/10/22 00:15:47;;;;;;;6.93;2.58;;;;;;;19.59;68.58;99074.38;5136537;27;20887;-57
2023/10/22 00:18:15;;;;;;;5.25;2.60;;;;;;;19.56;68.17;99070.16;5136292;27;20058;-57
2023/10/22 00:20:44;;;;;;;4.90;2.38;;;;;;;19.56;68.53;99051.22;5136292;27;20080;-58
2023/10/22 00:23:12;;;;;;;5.57;2.30;;;;;;;19.57;68.18;99058.31;5136138;27;20039;-58
2023/10/22 00:25:45;;;;;;;3.83;2.17;;;;;;;19.56;68.25;99051.22;5136278;27;20051;-59
2023/10/22 00:28:14;;;;;;;4.15;2.17;;;;;;;19.55;68.39;99071.16;5135897;27;20415;-57
2023/10/22 00:30:48;;;;;;;5.57;2.65;;;;;;;19.57;68.07;99084.53;5136120;27;20043;-57
2023/10/22 00:33:16;;;;;;;5.38;2.45;;;;;;;19.55;68.12;99091.94;5134777;27;20134;-58
2023/10/22 00:35:54;;;;;;;5.90;2.60;;;;;;;19.55;68.07;99095.50;5135958;27;20051;-58
2023/10/22 00:38:23;;;;;;;6.22;2.75;;;;;;;19.56;68.39;99104.47;5135840;27;20499;-56
2023/10/22 00:40:54;;;;;;;5.20;2.47;;;;;;;19.54;67.96;99101.09;5135972;27;20112;-58
2023/10/22 00:43:22;;;;;;;4.20;2.00;;;;;;;19.54;68.31;99095.69;5135875;27;20071;-58
2023/10/22 00:45:50;;;;;;;6.05;2.90;;;;;;;19.54;68.12;99087.56;5135768;27;20053;-57
2023/10/22 00:48:21;;;;;;;6.30;2.20;;;;;;;19.54;67.97;99093.81;5135721;27;20047;-57
2023/10/22 00:50:55;;;;;;;5.22;2.45;;;;;;;19.54;68.27;99095.69;5135560;27;20039;-57
2023/10/22 00:53:27;;;;;;;3.80;2.22;;;;;;;19.53;67.90;99084.03;5135807;27;20061;-57
2023/10/22 00:55:57;;;;;;;6.13;2.43;;;;;;;19.53;68.08;99080.47;5134971;27;20108;-57
2023/10/22 00:58:26;;;;;;;5.57;2.75;;;;;;;19.51;68.13;99075.25;5135368;27;20047;-57
2023/10/22 01:00:55;;;;;;;5.55;2.40;;;;;;;19.52;68.20;99073.38;5135747;27;20047;-58
2023/10/22 01:03:23;;;;;;;5.63;2.50;;;;;;;19.50;68.09;99060.03;5135530;27;20096;-58
2023/10/22 01:05:52;;;;;;;4.82;2.45;;;;;;;19.51;67.89;99079.81;5134240;27;20072;-57
2023/10/22 01:08:20;;;;;;;5.05;2.30;;;;;;;19.49;67.97;99071.84;5135332;27;20047;-56
2023/10/22 01:11:06;;;;;;;6.53;2.55;;;;;;;19.50;67.99;99061.91;5135386;27;20450;-57
2023/10/22 01:13:34;;;;;;;6.78;2.72;;;;;;;19.50;68.32;99070.88;5135471;27;20138;-57
2023/10/22 01:16:03;;;;;;;4.07;2.30;;;;;;;19.49;68.20;99076.41;5135378;27;20043;-58
2023/10/22 01:18:33;;;;;;;4.32;2.20;;;;;;;19.49;68.35;99088.06;5134891;27;20487;-59
2023/10/22 01:21:03;;;;;;;5.68;2.42;;;;;;;19.49;68.05;99088.06;5135034;27;20547;-57
2023/10/22 01:23:37;;;;;;;5.05;2.53;;;;;;;19.48;67.91;99091.81;5134923;27;20049;-58
2023/10/22 01:26:06;;;;;;;5.78;2.58;;;;;;;19.48;67.78;99097.22;5135063;27;20458;-57
2023/10/22 01:28:36;;;;;;;5.75;2.30;;;;;;;19.48;67.93;99091.81;5135168;27;20043;-57
2023/10/22 01:31:08;;;;;;;5.57;2.40;;;;;;;19.47;68.21;99083.88;5135004;27;20079;-57
2023/10/22 01:33:37;;;;;;;5.78;2.20;;;;;;;19.46;68.25;99074.94;5134839;27;20498;-57
2023/10/22 01:36:06;;;;;;;4.55;2.10;;;;;;;19.45;68.07;99071.38;5134826;27;20133;-56
2023/10/22 01:38:36;;;;;;;5.00;2.40;;;;;;;19.47;67.92;99070.34;5134626;27;20044;-57
2023/10/22 01:41:06;;;;;;;3.90;2.13;;;;;;;19.47;67.88;99073.06;5134893;27;20134;-58
2023/10/22 01:43:37;;;;;;;4.65;2.45;;;;;;;19.45;67.98;99071.38;5134768;27;20043;-57
2023/10/22 01:46:05;;;;;;;5.47;2.33;;;;;;;19.45;68.03;99071.38;5134534;27;20548;-56
2023/10/22 01:48:34;;;;;;;6.07;2.40;;;;;;;19.44;68.15;99058.88;5134628;27;20055;-57
2023/10/22 01:51:02;;;;;;;5.18;2.25;;;;;;;19.44;67.82;99058.88;5133572;27;20043;-57
2023/10/22 01:53:35;;;;;;;5.03;2.20;;;;;;;19.44;67.72;99063.44;5134578;27;20500;-56
2023/10/22 01:56:05;;;;;;;6.95;2.60;;;;;;;19.44;67.75;99063.44;5134490;27;20129;-57
2023/10/22 01:58:33;;;;;;;5.25;2.38;;;;;;;19.43;68.01;99065.31;5134336;27;20047;-57
2023/10/22 02:01:02;;;;;;;5.03;2.20;;;;;;;19.43;67.71;99078.84;5134388;27;20047;-57
2023/10/22 02:03:33;;;;;;;5.75;2.30;;;;;;;19.43;68.07;99073.44;5134163;27;20050;-57
2023/10/22 02:06:10;;;;;;;5.33;2.03;;;;;;;19.43;67.79;99073.44;5133131;27;20096;-57
2023/10/22 02:08:42;;;;;;;4.65;2.28;;;;;;;19.43;68.00;99081.53;5133835;27;20047;-56
2023/10/22 02:11:10;;;;;;;4.50;2.67;;;;;;;19.43;68.18;99080.69;5134256;27;20043;-57
2023/10/22 02:13:39;;;;;;;6.72;2.63;;;;;;;19.43;68.13;99083.41;5133928;27;20092;-57
2023/10/22 02:16:07;;;;;;;4.82;2.20;;;;;;;19.42;68.25;99077.16;5133960;27;20141;-55
2023/10/22 02:18:35;;;;;;;5.43;2.40;;;;;;;19.42;67.86;99082.56;5134049;27;20043;-57
2023/10/22 02:21:04;;;;;;;5.70;2.45;;;;;;;19.41;67.88;99080.88;5134009;27;20053;-55
2023/10/22 02:23:34;;;;;;;4.65;2.47;;;;;;;19.41;68.23;99086.28;5132761;27;20051;-57
2023/10/22 02:26:05;;;;;;;4.80;2.40;;;;;;;19.40;68.06;99079.19;5133602;27;20039;-57
2023/10/22 02:28:33;;;;;;;5.00;2.33;;;;;;;19.41;68.14;99069.22;5133647;27;20047;-58
2023/10/22 02:31:04;;;;;;;4.30;2.20;;;;;;;19.40;68.17;99072.94;5133930;27;20405;-56
2023/10/22 02:33:38;;;;;;;4.78;2.17;;;;;;;19.39;68.29;99066.66;5133753;27;20039;-58
2023/10/22 02:36:07;;;;;;;6.88;2.60;;;;;;;19.39;68.07;99055.84;5133566;27;20051;-57
2023/10/22 02:38:37;;;;;;;6.20;2.70;;;;;;;19.39;68.10;99049.59;5133408;27;20047;-57
2023/10/22 02:41:07;;;;;;;4.90;2.50;;;;;;;19.39;68.35;99055.84;5133434;27;20103;-57
2023/10/22 02:43:36;;;;;;;6.75;2.55;;;;;;;19.38;68.07;99059.56;5133401;27;20503;-57
2023/10/22 02:46:05;;;;;;;7.82;2.50;;;;;;;19.38;68.15;99070.41;5132426;27;20096;-57
2023/10/22 02:48:34;;;;;;;5.40;2.42;;;;;;;19.39;67.93;99071.22;5133421;27;20043;-55
2023/10/22 02:51:04;;;;;;;5.78;2.28;;;;;;;19.38;68.27;99056.03;5133372;27;20484;-57
2023/10/22 02:53:33;;;;;;;6.05;2.50;;;;;;;19.38;68.24;99053.34;5133206;27;20047;-57
2023/10/22 02:56:01;;;;;;;5.85;2.20;;;;;;;19.38;68.31;99058.75;5133410;27;20403;-57
2023/10/22 02:58:34;;;;;;;6.03;2.63;;;;;;;19.37;68.09;99052.50;5133305;27;20134;-58
2023/10/22 03:01:04;;;;;;;5.15;2.42;;;;;;;19.38;68.37;99064.16;5133419;27;20377;-57
2023/10/22 03:03:38;;;;;;;5.57;2.40;;;;;;;19.37;68.21;99057.91;5133211;27;20145;-58
2023/10/22 03:06:07;;;;;;;4.05;2.30;;;;;;;19.36;68.36;99061.63;5133017;27;20046;-58
2023/10/22 03:08:38;;;;;;;5.20;2.67;;;;;;;19.37;68.22;99067.88;5133032;27;20054;-58
2023/10/22 03:11:14;;;;;;;4.50;2.05;;;;;;;19.36;68.07;99067.03;5132937;27;20139;-57
2023/10/22 03:13:44;;;;;;;4.35;2.30;;;;;;;19.37;68.16;99062.47;5133037;27;20039;-58
2023/10/22 03:16:15;;;;;;;4.50;2.28;;;;;;;19.36;68.24;99077.84;5132897;27;20399;-58
2023/10/22 03:18:47;;;;;;;4.97;2.15;;;;;;;19.37;68.20;99079.53;5132341;27;20047;-58
2023/10/22 03:21:19;;;;;;;5.45;2.42;;;;;;;19.36;67.72;99083.25;5132972;27;20054;-58
2023/10/22 03:23:48;;;;;;;4.78;2.30;;;;;;;19.36;67.98;99077.84;5132883;27;20137;-58
2023/10/22 03:26:17;;;;;;;5.78;2.50;;;;;;;19.36;67.84;99077.84;5132753;27;20047;-58
2023/10/22 03:28:50;;;;;;;3.92;2.17;;;;;;;19.36;67.82;99083.25;5132644;27;20043;-59
2023/10/22 03:31:18;;;;;;;4.70;2.30;;;;;;;19.34;68.03;99079.06;5132663;27;20061;-57
2023/10/22 03:33:47;;;;;;;6.45;2.72;;;;;;;19.36;67.75;99088.66;5132945;27;20118;-58
2023/10/22 03:36:15;;;;;;;4.57;2.30;;;;;;;19.36;67.87;99082.41;5132873;28;20043;-58
2023/10/22 03:38:44;;;;;;;4.32;2.10;;;;;;;19.35;67.75;99081.56;5132737;27;20099;-57
2023/10/22 03:41:16;;;;;;;5.43;2.42;;;;;;;19.34;68.13;99071.78;5132607;27;20134;-57
2023/10/22 03:43:47;;;;;;;4.47;2.35;;;;;;;19.34;68.16;99079.91;5132601;27;20106;-57
2023/10/22 03:46:16;;;;;;;4.07;2.10;;;;;;;19.34;67.97;99079.91;5131562;28;20062;-58
2023/10/22 03:48:46;;;;;;;3.80;2.03;;;;;;;19.34;67.80;99079.91;5132693;28;20126;-58
2023/10/22 03:51:18;;;;;;;4.40;2.20;;;;;;;19.33;67.83;99080.91;5132692;27;20047;-57
2023/10/22 03:53:48;;;;;;;6.28;2.42;;;;;;;19.33;68.17;99083.63;5132572;27;20100;-58
2023/10/22 03:56:17;;;;;;;5.47;2.35;;;;;;;19.35;67.93;99091.56;5132515;27;20042;-58
2023/10/22 03:58:48;;;;;;;5.53;2.50;;;;;;;19.33;68.33;99086.31;5132659;27;20134;-57
2023/10/22 04:01:17;;;;;;;6.07;2.40;;;;;;;19.33;68.30;99082.78;5132493;28;20051;-56
2023/10/22 04:03:46;;;;;;;4.85;2.45;;;;;;;19.33;68.14;99080.91;5132558;27;20043;-57
2023/10/22 04:06:14;;;;;;;4.28;2.42;;;;;;;19.32;68.35;99087.34;5132295;28;20093;-57
2023/10/22 04:08:42;;;;;;;4.93;2.28;;;;;;;19.33;68.30;99083.63;5132369;27;20579;-58
2023/10/22 04:11:11;;;;;;;4.63;2.50;;;;;;;19.33;68.11;99082.78;5132581;27;20120;-57
2023/10/22 04:13:39;;;;;;;5.07;2.20;;;;;;;19.32;68.33;99095.47;5132302;27;20057;-56
2023/10/22 04:16:15;;;;;;;5.15;2.63;;;;;;;19.33;68.47;99109.81;5132313;27;20051;-58
2023/10/22 04:18:45;;;;;;;4.50;2.45;;;;;;;19.32;68.51;99114.38;5132361;27;20040;-56
2023/10/22 04:21:14;;;;;;;5.53;2.38;;;;;;;19.33;68.20;99120.63;5132031;28;20461;-58
2023/10/22 04:23:46;;;;;;;6.88;2.70;;;;;;;19.33;68.39;99120.63;5132166;28;20043;-57
2023/10/22 04:26:15;;;;;;;6.07;3.07;;;;;;;19.32;68.41;99122.50;5132282;27;20092;-56
2023/10/22 04:28:45;;;;;;;6.65;2.97;;;;;;;19.31;68.80;99128.91;5132346;27;20181;-56
2023/10/22 04:31:16;;;;;;;4.50;2.38;;;;;;;19.31;68.46;99125.38;5134850;27;20122;-58
2023/10/22 04:33:46;;;;;;;4.57;2.53;;;;;;;19.30;68.34;99135.34;5135979;27;20051;-58
2023/10/22 04:36:20;;;;;;;5.30;2.72;;;;;;;19.30;68.77;99154.28;5136132;27;20039;-57
2023/10/22 04:38:49;;;;;;;5.88;2.60;;;;;;;19.29;68.86;99157.97;5136022;27;20043;-58
2023/10/22 04:41:17;;;;;;;5.90;2.85;;;;;;;19.30;68.55;99165.09;5135909;27;20047;-57
2023/10/22 04:43:45;;;;;;;5.45;2.90;;;;;;;19.30;68.91;99159.69;5135845;27;20449;-57
2023/10/22 04:46:14;;;;;;;5.63;2.67;;;;;;;19.29;68.54;99152.56;5135786;27;20050;-58
2023/10/22 04:48:44;;;;;;;5.28;2.42;;;;;;;19.28;68.83;99156.28;5134452;27;20531;-58
2023/10/22 04:51:13;;;;;;;5.38;2.63;;;;;;;19.29;68.56;99159.81;5135880;27;20055;-58
2023/10/22 04:53:42;;;;;;;5.43;2.90;;;;;;;19.28;69.06;99161.69;5135256;27;20104;-58
2023/10/22 04:56:10;;;;;;;5.32;2.70;;;;;;;19.29;68.66;99179.59;5135584;27;20130;-58
2023/10/22 04:58:38;;;;;;;5.47;2.35;;;;;;;19.28;68.97;99175.22;5135576;27;20043;-58
2023/10/22 05:01:07;;;;;;;3.67;2.10;;;;;;;19.29;68.92;99184.16;5135178;27;20076;-59
2023/10/22 05:03:35;;;;;;;4.47;2.20;;;;;;;19.29;68.85;99185.00;5135620;27;20399;-58
2023/10/22 05:06:06;;;;;;;4.80;2.22;;;;;;;19.29;68.61;99187.72;5135291;27;20047;-57
2023/10/22 05:08:40;;;;;;;4.07;2.22;;;;;;;19.29;68.39;99198.53;5135356;27;20453;-58
2023/10/22 05:11:14;;;;;;;4.22;2.05;;;;;;;19.28;68.77;99199.53;5135374;27;20490;-57
2023/10/22 05:13:44;;;;;;;4.57;2.08;;;;;;;19.29;68.71;99208.50;5135094;27;20051;-57
2023/10/22 05:16:12;;;;;;;3.80;1.90;;;;;;;19.28;68.51;99207.66;5135133;27;20044;-58
2023/10/22 05:18:41;;;;;;;4.10;1.80;;;;;;;19.28;68.66;99210.34;5135252;27;20039;-57
2023/10/22 05:21:09;;;;;;;5.18;2.38;;;;;;;19.28;68.60;99221.16;5134954;27;20047;-58
2023/10/22 05:23:42;;;;;;;2.95;1.60;;;;;;;19.28;68.63;99221.16;5135078;27;20491;-58
2023/10/22 05:26:12;;;;;;;4.00;2.10;;;;;;;19.28;68.40;99223.03;5134743;27;20384;-58
2023/10/22 05:28:41;;;;;;;3.78;1.73;;;;;;;19.28;68.37;99233.84;5135135;27;20134;-58
2023/10/22 05:31:14;;;;;;;4.70;2.10;;;;;;;19.28;68.74;99231.97;5135147;27;20039;-58
2023/10/22 05:33:45;;;;;;;2.70;1.60;;;;;;;19.27;68.41;99240.28;5134817;27;20491;-58
2023/10/22 05:36:17;;;;;;;3.20;1.60;;;;;;;19.27;68.85;99238.41;5134818;27;20130;-58
2023/10/22 05:38:47;;;;;;;3.85;1.98;;;;;;;19.26;68.90;99249.41;5133492;27;20047;-59
2023/10/22 05:41:18;;;;;;;3.50;1.88;;;;;;;19.25;68.79;99264.78;5134360;27;20051;-57
2023/10/22 05:43:47;;;;;;;3.60;1.63;;;;;;;19.25;69.09;99264.78;5134632;27;20043;-58
2023/10/22 05:46:15;;;;;;;2.97;1.58;;;;;;;19.23;68.98;99277.63;5134700;27;20088;-57
2023/10/22 05:48:46;;;;;;;3.85;1.80;;;;;;;19.24;68.84;99284.72;5134551;27;20043;-59
2023/10/22 05:51:18;;;;;;;3.47;1.75;;;;;;;19.24;69.37;99290.13;5134392;27;20046;-59
2023/10/22 05:53:49;;;;;;;3.38;1.73;;;;;;;19.23;68.99;99293.84;5134625;27;20047;-58
2023/10/22 05:56:17;;;;;;;5.03;1.85;;;;;;;19.23;69.01;99299.25;5134327;27;20118;-59
2023/10/22 05:58:46;;;;;;;3.03;1.80;;;;;;;19.24;69.25;99302.81;5134424;27;20050;-57
2023/10/22 06:01:16;;;;;;;3.47;1.73;;;;;;;19.23;69.25;99323.59;5134289;27;20055;-59
2023/10/22 06:03:47;;;;;;;3.30;1.80;;;;;;;19.22;69.36;99330.00;5134158;27;20043;-58
2023/10/22 06:06:19;;;;;;;3.83;1.67;;;;;;;19.22;69.37;99334.56;5134444;27;20126;-58
2023/10/22 06:08:52;;;;;;;5.05;1.80;;;;;;;19.21;69.20;99331.03;5134194;27;20047;-58
2023/10/22 06:11:20;;;;;;;3.25;1.75;;;;;;;19.21;69.60;99333.72;5134180;27;20043;-58
2023/10/22 06:13:48;;;;;;;3.58;1.83;;;;;;;19.22;69.28;99350.78;5134119;27;20130;-58
2023/10/22 06:16:16;;;;;;;3.67;1.80;;;;;;;19.21;69.10;99349.94;5132628;27;20555;-59
2023/10/22 06:18:47;;;;;;;4.85;1.90;;;;;;;19.21;69.21;99349.94;5134132;27;20043;-58
2023/10/22 06:21:16;;;;;;;2.92;1.67;;;;;;;19.22;69.29;99359.75;5133742;27;20058;-58
2023/10/22 06:23:44;;;;;;;4.85;2.10;;;;;;;19.21;69.26;99346.41;5133974;27;20058;-57
2023/10/22 06:26:22;;;;;;;3.83;1.92;;;;;;;19.20;69.47;99356.34;5133683;27;20429;-58
2023/10/22 06:28:51;;;;;;;4.22;1.90;;;;;;;19.21;69.11;99365.31;5133672;27;20051;-57
2023/10/22 06:31:19;;;;;;;3.38;1.80;;;;;;;19.21;69.43;99374.28;5133310;27;20083;-55
2023/10/22 06:33:50;;;;;;;4.10;1.90;;;;;;;19.20;69.46;99377.97;5133797;27;20151;-58
2023/10/22 06:36:21;;;;;;;5.40;2.20;;;;;;;19.21;69.23;99366.16;5133768;27;20043;-58
2023/10/22 06:38:50;;;;;;;3.13;1.50;;;;;;;19.20;69.23;99377.13;5133602;27;20122;-58
2023/10/22 06:41:22;;;;;;;3.60;1.67;;;;;;;19.21;69.53;99376.16;5133438;27;20057;-56
2023/10/22 06:43:50;;;;;;;3.75;2.00;;;;;;;19.21;69.45;99381.56;5133424;27;20480;-56
2023/10/22 06:46:19;;;;;;;4.55;2.00;;;;;;;19.20;69.66;99391.50;5133618;27;20039;-55
2023/10/22 06:48:49;;;;;;;4.10;1.83;;;;;;;19.20;69.78;99394.19;5133470;27;20046;-55
2023/10/22 06:51:18;;;;;;;3.30;1.58;;;;;;;19.22;69.66;99399.44;5133571;27;20088;-57
2023/10/22 06:53:47;;;;;;;3.25;1.40;;;;;;;19.21;69.99;99404.03;5132615;27;20086;-56
2023/10/22 06:56:17;;;;;;;3.97;1.70;;;;;;;19.21;69.97;99400.47;5133112;27;20544;-54
2023/10/22 06:58:46;;;;;;;4.55;1.83;;;;;;;19.20;70.07;99402.31;5133178;27;20051;-55
2023/10/22 07:01:15;;;;;;;3.90;1.80;;;;;;;19.20;69.88;99410.41;5133300;27;20047;-55
2023/10/22 07:03:47;;;;;;;2.88;1.55;;;;;;;19.18;69.99;99404.34;5133133;27;20050;-56
2023/10/22 07:06:16;;;;;;;4.82;1.90;;;;;;;19.21;69.90;99422.09;5133090;27;20053;-56
2023/10/22 07:08:47;;;;;;;2.80;1.48;;;;;;;19.22;69.75;99421.09;5132765;27;20084;-54
2023/10/22 07:11:15;;;;;;;2.85;1.52;;;;;;;19.23;69.69;99428.19;5133115;27;20137;-57
2023/10/22 07:13:43;;;;;;;4.75;1.73;;;;;;;19.22;69.71;99427.34;5133139;27;20050;-56
2023/10/22 07:16:13;;;;;;;3.58;1.95;;;;;;;19.24;69.63;99444.22;5132536;27;20043;-55
2023/10/22 07:18:41;;;;;;;2.90;1.80;;;;;;;19.25;69.19;99450.47;5132930;27;20388;-55
2023/10/22 07:21:10;;;;;;;3.92;2.35;;;;;;;19.26;69.27;99453.00;5132646;27;20047;-59
2023/10/22 07:23:39;;;;;;;3.72;1.83;;;;;;;19.27;69.31;99456.56;5133118;27;20046;-56
2023/10/22 07:26:10;;;;;;;4.03;1.95;;;;;;;19.27;69.15;99459.25;5132623;27;20471;-56
2023/10/22 07:28:41;;;;;;;2.80;1.85;;;;;;;19.27;69.33;99468.22;5132900;27;20049;-57
2023/10/22 07:31:17;;;;;;;3.20;1.80;;;;;;;19.28;68.85;99469.91;5132832;27;20392;-59
2023/10/22 07:33:45;;;;;;;2.88;1.83;;;;;;;19.30;68.81;99469.72;5132788;27;20047;-57
2023/10/22 07:36:14;;;;;;;3.10;1.80;;;;;;;19.29;68.69;99474.28;5132581;27;20047;-54
2023/10/22 07:38:42;;;;;;;4.00;1.98;;;;;;;19.30;68.88;99473.31;5132882;27;20109;-56
2023/10/22 07:41:14;;;;;;;3.35;1.70;;;;;;;19.30;68.97;99478.72;5132580;27;20050;-58
2023/10/22 07:43:46;;;;;;;5.22;1.95;;;;;;;19.32;68.64;99481.25;5132881;27;20051;-55
2023/10/22 07:46:15;;;;;;;3.03;1.75;;;;;;;19.32;68.83;99487.50;5132514;27;20036;-56
2023/10/22 07:48:45;;;;;;;4.05;1.77;;;;;;;19.33;69.24;99489.19;5132790;27;20046;-55
2023/10/22 07:51:18;;;;;;;3.70;1.92;;;;;;;19.35;69.15;99497.13;5132891;27;20134;-55
2023/10/22 07:53:48;;;;;;;3.90;1.83;;;;;;;19.37;69.39;99505.91;5132410;27;20089;-56
2023/10/22 07:56:18;;;;;;;3.70;1.90;;;;;;;19.36;69.04;99510.47;5132578;27;20046;-55
2023/10/22 07:58:48;;;;;;;3.72;1.70;;;;;;;19.36;69.45;99513.19;5132290;27;20507;-55
2023/10/22 08:01:19;;;;;;;3.22;1.70;;;;;;;19.36;69.28;99518.59;5132503;27;20052;-56
2023/10/22 08:03:49;;;;;;;6.93;2.00;;;;;;;19.36;69.44;99515.88;5132705;27;20055;-56
2023/10/22 08:06:18;;;;;;;3.58;1.70;;;;;;;19.38;69.27;99513.00;5136431;27;20554;-56
2023/10/22 08:08:46;;;;;;;4.30;1.75;;;;;;;19.37;69.52;99522.97;5136502;27;20047;-57
2023/10/22 08:11:17;;;;;;;3.42;1.65;;;;;;;19.37;69.57;99528.38;5136257;27;20044;-53
2023/10/22 08:13:46;;;;;;;4.07;1.60;;;;;;;19.39;69.59;99526.34;5136585;27;20058;-53
2023/10/22 08:16:15;;;;;;;2.78;1.50;;;;;;;19.40;69.56;99538.91;5136568;27;20130;-56
2023/10/22 08:18:44;;;;;;;4.15;1.95;;;;;;;19.41;69.24;99546.00;5136339;27;20043;-56
2023/10/22 08:21:13;;;;;;;5.65;1.73;;;;;;;19.42;69.55;99553.09;5134889;27;20043;-54
2023/10/22 08:23:42;;;;;;;3.85;1.70;;;;;;;19.42;69.17;99563.91;5134853;27;20555;-54
2023/10/22 08:26:10;;;;;;;2.60;1.50;;;;;;;19.45;69.53;99563.56;5135888;27;20044;-56
2023/10/22 08:28:40;;;;;;;7.28;1.95;;;;;;;19.51;69.62;99561.22;5136208;27;20066;-57
2023/10/22 08:31:09;;;;;;;4.20;1.90;;;;;;;19.54;69.77;99561.72;5136169;27;20069;-53
2023/10/22 08:33:37;;;;;;;4.35;1.80;;;;;;;19.57;69.59;99557.88;5135924;27;20107;-56
2023/10/22 08:36:13;;;;;;;5.60;1.70;;;;;;;19.59;69.29;99554.00;5136310;27;20118;-55
2023/10/22 08:38:44;;;;;;;8.90;2.00;;;;;;;19.60;69.49;99563.81;5135922;27;20779;-55
2023/10/22 08:41:20;;;;;;;6.88;2.20;;;;;;;19.65;70.04;99564.13;5136107;27;20043;-57
2023/10/22 08:43:50;;;;;;;14.45;2.13;;;;;;;19.68;70.01;99587.31;5135836;27;20456;-56
2023/10/22 08:46:19;;;;;;;8.73;1.92;;;;;;;19.69;69.74;99586.31;5135953;27;20133;-54
2023/10/22 08:48:51;;;;;;;9.48;2.10;;;;;;;19.71;69.46;99584.28;5135777;27;20106;-56
2023/10/22 08:51:23;;;;;;;12.13;2.08;;;;;;;19.73;69.86;99587.66;5135942;27;20050;-56
2023/10/22 08:53:51;;;;;;;28.92;3.75;;;;;;;19.75;69.59;99591.03;5134643;27;20161;-56
2023/10/22 08:56:20;;;;;;;23.33;3.40;;;;;;;19.78;69.63;99604.22;5135387;27;20081;-56
2023/10/22 08:58:49;;;;;;;22.52;2.97;;;;;;;19.77;69.78;99605.25;5135629;27;20415;-57
2023/10/22 09:01:20;;;;;;;14.73;2.75;;;;;;;19.76;69.43;99608.97;5135431;27;20125;-57
2023/10/22 09:03:48;;;;;;;13.75;2.30;;;;;;;19.77;69.27;99613.34;5135277;27;20111;-60
2023/10/22 09:06:16;;;;;;;7.93;2.00;;;;;;;19.77;69.44;99621.47;5135413;27;20474;-59
2023/10/22 09:08:46;;;;;;;11.02;2.05;;;;;;;19.76;69.10;99625.19;5135464;27;20047;-59
2023/10/22 09:11:15;;;;;;;8.35;1.77;;;;;;;19.75;68.98;99620.81;5135274;27;20043;-56
2023/10/22 09:13:44;;;;;;;10.30;2.60;;;;;;;19.78;69.25;99615.03;5134948;27;20415;-53
2023/10/22 09:16:12;;;;;;;9.70;2.28;;;;;;;19.79;69.24;99629.44;5134571;27;20047;-59
2023/10/22 09:18:45;;;;;;;11.95;2.38;;;;;;;19.84;69.39;99632.50;5135434;27;20149;-55
2023/10/22 09:21:13;;;;;;;10.75;1.95;;;;;;;19.82;69.09;99627.25;5135131;27;20134;-59
2023/10/22 09:23:44;;;;;;;11.45;2.25;;;;;;;19.84;69.16;99633.34;5133863;27;20130;-56
2023/10/22 09:26:14;;;;;;;9.50;1.90;;;;;;;19.85;69.47;99639.59;5134741;27;20061;-59
2023/10/22 09:28:42;;;;;;;10.70;2.47;;;;;;;19.86;69.31;99641.28;5135301;27;20039;-54
2023/10/22 09:31:13;;;;;;;11.88;2.33;;;;;;;19.87;69.16;99646.53;5135118;27;20047;-54
2023/10/22 09:33:42;;;;;;;18.75;3.40;;;;;;;19.89;69.50;99652.66;5135046;27;20095;-53
2023/10/22 09:36:12;;;;;;;14.88;2.53;;;;;;;19.92;69.58;99646.88;5134976;27;20047;-55
2023/10/22 09:38:45;;;;;;;15.40;2.72;;;;;;;19.94;69.54;99646.72;5134708;27;20138;-60
2023/10/22 09:41:29;;;;;;;18.70;2.50;;;;;;;19.95;70.14;99657.38;5134733;27;20047;-55
2023/10/22 09:43:59;;;;;;;22.98;3.15;;;;;;;19.94;70.37;99661.09;5134822;27;20054;-56
2023/10/22 09:46:30;;;;;;;21.10;2.97;;;;;;;19.95;70.18;99657.38;5134804;27;20052;-56
2023/10/22 09:49:00;;;;;;;19.17;3.42;;;;;;;19.96;70.22;99666.34;5134499;27;20044;-57
2023/10/22 09:51:31;;;;;;;12.38;2.55;;;;;;;19.97;70.27;99670.72;5134006;27;20043;-59
2023/10/22 09:54:06;;;;;;;21.58;2.95;;;;;;;19.98;70.10;99667.88;5134589;27;20133;-56
2023/10/22 09:56:39;;;;;;;24.42;3.42;;;;;;;20.06;70.26;99679.72;5134316;27;20403;-60
2023/10/22 09:59:10;;;;;;;102.55;9.05;;;;;;;20.07;69.81;99673.28;5134498;27;20050;-56
2023/10/22 10:01:43;;;;;;;38.78;3.90;;;;;;;20.11;69.85;99699.88;5132558;27;20039;-56
2023/10/22 10:04:37;;;;;;;37.10;4.28;;;;;;;20.11;69.86;99677.38;5129191;27;20047;-56
2023/10/22 10:07:06;;;;;;;26.95;3.53;;;;;;;20.10;69.56;99681.09;5134096;27;20051;-58
2023/10/22 10:09:42;;;;;;;21.90;3.38;;;;;;;20.12;69.43;99689.88;5134332;27;20096;-55
2023/10/22 10:12:21;;;;;;;19.37;3.27;;;;;;;20.10;69.71;99679.22;5134098;27;20512;-57
2023/10/22 10:14:50;;;;;;;21.55;2.80;;;;;;;20.07;69.13;99694.94;5134377;27;20086;-57
2023/10/22 10:17:21;;;;;;;12.02;2.53;;;;;;;20.05;68.99;99691.56;5133735;27;20047;-57
2023/10/22 10:19:52;;;;;;;13.68;3.08;;;;;;;20.01;69.58;99686.50;5132836;27;20404;-56
2023/10/22 10:22:39;;;;;;;10.07;2.17;;;;;;;20.01;68.98;99700.03;5133456;27;20043;-56
2023/10/22 10:25:29;;;;;;;10.82;2.03;;;;;;;20.02;69.23;99701.72;5133981;27;20075;-56
2023/10/22 10:28:02;;;;;;;15.13;1.83;;;;;;;20.06;68.60;99704.06;5131971;27;20503;-56
2023/10/22 10:30:30;;;;;;;;;;;;;;;20.08;68.67;99710.19;5134197;27;20047;-56
2023/10/22 10:32:58;;;;;;;17.00;2.13;;;;;;;20.11;68.04;99720.69;5133645;27;19920;-56
2023/10/22 10:35:47;;;;;;;10.00;1.90;;;;;;;20.11;67.57;99721.53;5133135;27;20039;-58
2023/10/22 10:38:23;;;;;;;12.65;2.40;;;;;;;20.12;68.09;99725.09;5133382;27;20503;-55
2023/10/22 10:40:55;;;;;;;14.48;2.75;;;;;;;20.15;67.61;99732.88;5133721;27;20417;-59
2023/10/22 10:44:08;;;;;;;17.02;2.40;;;;;;;20.14;68.23;99747.41;5133259;27;20066;-59
2023/10/22 10:46:39;;;;;;;10.27;1.83;;;;;;;20.16;67.95;99745.38;5069539;28;20417;-59
2023/10/22 10:49:09;;;;;;;8.20;2.42;;;;;;;20.16;66.83;99739.97;5125084;27;20088;-58
2023/10/22 10:51:38;;;;;;;8.40;2.20;;;;;;;20.15;67.00;99741.00;5132417;27;20126;-61
2023/10/22 10:54:17;;;;;;;12.00;2.20;;;;;;;20.14;67.21;99742.84;5133399;27;20043;-60
2023/10/22 10:56:57;;;;;;;11.27;1.98;;;;;;;20.14;67.13;99736.59;5133137;27;20564;-59
2023/10/22 10:59:35;;;;;;;10.35;1.70;;;;;;;20.11;67.11;99742.34;5133280;27;20054;-60
2023/10/22 11:02:07;;;;;;;5.80;1.58;;;;;;;20.06;67.17;99740.13;5131873;27;20137;-60
2023/10/22 11:04:37;;;;;;;7.05;1.80;;;;;;;20.05;67.17;99753.81;5132946;27;20055;-61
2023/10/22 11:07:07;;;;;;;6.78;1.63;;;;;;;20.03;67.52;99743.16;5133008;27;20047;-58
2023/10/22 11:09:39;;;;;;;8.77;1.80;;;;;;;20.04;67.28;99733.19;5132103;27;20094;-58
2023/10/22 11:12:09;;;;;;;6.88;1.50;;;;;;;20.01;67.37;99743.34;5133351;27;20054;-59
2023/10/22 11:14:39;;;;;;;5.45;1.50;;;;;;;20.00;67.50;99740.78;5133058;27;20075;-58
2023/10/22 11:17:07;;;;;;;7.68;1.63;;;;;;;20.00;67.22;99744.34;5132924;27;20057;-60
2023/10/22 11:19:36;;;;;;;11.77;1.65;;;;;;;20.02;67.51;99750.44;5132903;27;20047;-58
2023/10/22 11:22:05;;;;;;;9.10;1.70;;;;;;;20.04;67.36;99762.97;5133089;27;20043;-61
2023/10/22 11:24:34;;;;;;;9.65;1.80;;;;;;;20.10;67.40;99762.31;5132897;27;20096;-58
2023/10/22 11:27:05;;;;;;;13.73;2.30;;;;;;;20.12;67.53;99771.97;5132646;27;20487;-59
2023/10/22 11:29:41;;;;;;;24.65;2.45;;;;;;;20.17;67.53;99758.78;5125787;27;20059;-54
2023/10/22 11:32:14;;;;;;;18.00;2.95;;;;;;;20.21;67.55;99753.88;5116655;27;20054;-59
2023/10/22 11:37:56;;;;;;;12.20;1.98;;;;;;;20.23;67.14;99741.00;5110489;28;20757;-55
2023/10/22 11:40:28;;;;;;;15.23;2.28;;;;;;;20.21;66.80;99737.63;5126813;28;20039;-58
2023/10/22 11:43:00;;;;;;;8.02;2.08;;;;;;;20.23;66.63;99743.72;5132600;27;20566;-57
2023/10/22 11:45:34;;;;;;;9.82;1.65;;;;;;;20.22;67.00;99744.72;5132059;27;20051;-57
2023/10/22 11:48:13;;;;;;;8.73;1.80;;;;;;;20.21;66.65;99757.44;5131875;27;20135;-56
2023/10/22 11:50:50;;;;;;;8.70;1.60;;;;;;;20.19;66.70;99750.50;5132209;27;20044;-55